Time;durP1;ratioP1;P1;durP2;ratioP2;P2;SDS_P1;SDS_P2;PMS_P1;PMS_P2;Temp;Humidity;BMP_temperature;BMP_pressure;BME280_temperature;BME280_humidity;BME280_pressure;Samples;Min_cycle;Max_cycle;Signal;HPM_P1;HPM_P2
2023/01/12 00:01:31;;;;;;;1.00;1.00;;;30.00;99.90;;;;;;5073469;28;20021;-68
2023/01/12 00:03:57;;;;;;;0.20;0.20;;;29.80;99.90;;;;;;5073140;28;20036;-68
2023/01/12 00:06:23;;;;;;;4.88;4.07;;;30.10;99.90;;;;;;5073146;28;20519;-68
2023/01/12 00:08:50;;;;;;;0.73;0.73;;;29.70;99.90;;;;;;5073124;28;20029;-68
2023/01/12 00:11:17;;;;;;;0.40;0.40;;;29.70;99.90;;;;;;5073152;28;20028;-68
2023/01/12 00:13:43;;;;;;;0.20;0.20;;;29.50;99.90;;;;;;5072945;28;20045;-68
2023/01/12 00:16:34;;;;;;;0.65;0.65;;;29.50;99.90;;;;;;5073026;28;20549;-67
2023/01/12 00:19:16;;;;;;;0.52;0.52;;;29.60;99.90;;;;;;5073032;28;20027;-68
2023/01/12 00:24:29;;;;;;;2.00;1.90;;;29.60;99.90;;;;;;5072937;28;20542;-67
2023/01/12 00:26:56;;;;;;;0.55;0.55;;;29.40;99.90;;;;;;5072870;28;20029;-67
2023/01/12 00:29:23;;;;;;;2.65;2.53;;;29.20;99.90;;;;;;5072795;28;20107;-67
2023/01/12 00:31:49;;;;;;;0.52;0.52;;;29.10;99.90;;;;;;5072672;28;20385;-67
2023/01/12 00:34:15;;;;;;;9.52;7.80;;;29.00;99.90;;;;;;5072574;28;20032;-67
2023/01/12 00:36:41;;;;;;;2.10;2.00;;;29.10;99.90;;;;;;5072594;28;20477;-68
2023/01/12 00:39:06;;;;;;;0.20;0.20;;;29.00;99.90;;;;;;5072586;28;20028;-68
2023/01/12 00:47:00;;;;;;;46.45;6.57;;;28.50;99.90;;;;;;5072321;28;20035;-67
2023/01/12 00:49:26;;;;;;;32.85;5.25;;;28.60;99.90;;;;;;5072340;28;20021;-67
2023/01/12 00:51:52;;;;;;;30.77;6.10;;;28.40;99.90;;;;;;5072188;28;20059;-67
2023/01/12 00:54:17;;;;;;;42.45;8.15;;;28.50;99.90;;;;;;5072210;28;20036;-67
2023/01/12 00:56:43;;;;;;;50.38;7.68;;;28.40;99.90;;;;;;5071997;28;20351;-67
2023/01/12 00:59:09;;;;;;;51.80;7.45;;;28.40;99.90;;;;;;5072392;28;20557;-67
2023/01/12 01:01:35;;;;;;;43.33;6.47;;;28.40;99.90;;;;;;5071987;28;20028;-69
2023/01/12 01:04:01;;;;;;;39.08;6.88;;;28.20;99.90;;;;;;5072227;28;20040;-67
2023/01/12 01:06:27;;;;;;;41.08;6.63;;;28.20;99.90;;;;;;5071100;28;20031;-67
2023/01/12 01:08:53;;;;;;;38.42;7.82;;;28.30;99.90;;;;;;5071901;28;20173;-69
2023/01/12 01:11:18;;;;;;;32.70;6.68;;;28.20;99.90;;;;;;5071898;28;20119;-68
2023/01/12 01:13:44;;;;;;;27.20;4.85;;;28.10;99.90;;;;;;5071744;28;20047;-68
2023/01/12 01:16:16;;;;;;;49.95;7.80;;;28.10;99.90;;;;;;5071725;28;20031;-68
2023/01/12 01:18:42;;;;;;;32.75;6.85;;;28.10;99.90;;;;;;5071923;28;20066;-68
2023/01/12 01:21:10;;;;;;;42.38;6.85;;;28.10;99.90;;;;;;5071624;28;20044;-68
2023/01/12 01:23:37;;;;;;;45.17;7.82;;;27.90;99.90;;;;;;5071622;28;20023;-68
2023/01/12 01:26:09;;;;;;;30.92;5.20;;;27.90;99.90;;;;;;5071467;28;20036;-68
2023/01/12 01:28:35;;;;;;;42.88;7.35;;;27.90;99.90;;;;;;5071667;28;20126;-68
2023/01/12 01:31:13;;;;;;;39.25;6.50;;;27.90;99.90;;;;;;5071502;28;20036;-69
2023/01/12 01:33:40;;;;;;;40.45;7.30;;;27.80;99.90;;;;;;5070173;28;20017;-68
2023/01/12 01:36:06;;;;;;;39.33;8.00;;;27.80;99.90;;;;;;5071473;28;20029;-69
2023/01/12 01:38:32;;;;;;;50.10;8.32;;;27.70;99.90;;;;;;5071469;28;20017;-68
2023/01/12 01:40:58;;;;;;;46.58;7.10;;;27.70;99.90;;;;;;5071437;28;20085;-69
2023/01/12 01:43:26;;;;;;;56.45;7.05;;;27.70;99.90;;;;;;5071319;28;20033;-69
2023/01/12 01:46:05;;;;;;;53.85;8.57;;;27.60;99.90;;;;;;5071340;28;20081;-70
2023/01/12 01:48:35;;;;;;;53.90;8.85;;;27.40;99.90;;;;;;5071361;28;20556;-67
2023/01/12 01:51:07;;;;;;;46.13;9.23;;;27.50;99.90;;;;;;5070110;28;20046;-68
2023/01/12 01:53:35;;;;;;;66.28;9.27;;;27.40;99.90;;;;;;5071224;28;20083;-68
2023/01/12 01:56:09;;;;;;;49.55;8.77;;;27.40;99.90;;;;;;5071336;28;20028;-69
2023/01/12 01:58:39;;;;;;;38.33;8.40;;;27.40;99.90;;;;;;5071215;28;20044;-68
2023/01/12 02:01:06;;;;;;;41.05;7.90;;;27.50;99.90;;;;;;5071217;28;20032;-69
2023/01/12 02:03:33;;;;;;;50.17;8.38;;;27.40;99.90;;;;;;5071121;28;20144;-69
2023/01/12 02:05:59;;;;;;;46.17;8.15;;;27.20;99.90;;;;;;5071120;28;20027;-69
2023/01/12 02:08:45;;;;;;;33.30;6.30;;;27.40;99.90;;;;;;5069795;28;20056;-69
2023/01/12 02:17:07;;;;;;;38.47;7.40;;;27.20;99.90;;;;;;5071398;28;20050;-69
2023/01/12 02:20:25;;;;;;;49.10;6.85;;;27.30;99.90;;;;;;5077081;28;20024;-69
2023/01/12 02:22:50;;;;;;;28.60;5.97;;;27.30;99.90;;;;;;5032938;28;20029;-68
2023/01/12 02:26:00;;;;;;;58.35;9.82;;;27.30;99.90;;;;;;5077677;28;20043;-68
2023/01/12 02:29:08;;;;;;;53.60;8.13;;;27.20;99.90;;;;;;5077542;28;20016;-68
2023/01/12 02:31:37;;;;;;;52.35;6.88;;;27.30;99.90;;;;;;5066376;28;20477;-67
2023/01/12 02:34:02;;;;;;;39.53;7.22;;;27.40;99.90;;;;;;5077577;28;20016;-68
2023/01/12 02:36:28;;;;;;;41.17;7.75;;;27.40;99.90;;;;;;5077438;28;20113;-68
2023/01/12 02:39:02;;;;;;;62.38;9.90;;;27.40;99.90;;;;;;5076048;28;20021;-68
2023/01/12 02:45:02;;;;;;;59.05;8.13;;;27.50;99.90;;;;;;5077333;28;20039;-68
2023/01/12 02:47:47;;;;;;;49.15;7.18;;;27.40;99.90;;;;;;5045471;28;20401;-68
2023/01/12 02:50:28;;;;;;;39.75;6.57;;;27.60;99.90;;;;;;5077370;28;20043;-68
2023/01/12 02:53:05;;;;;;;36.33;6.70;;;27.60;99.90;;;;;;5077373;28;20099;-67
2023/01/12 02:55:32;;;;;;;41.03;5.55;;;27.50;99.90;;;;;;5076956;28;20040;-67
2023/01/12 02:58:01;;;;;;;55.67;8.85;;;27.50;99.90;;;;;;5077195;28;20055;-68
2023/01/12 03:00:28;;;;;;;57.35;8.90;;;27.60;99.90;;;;;;5077349;28;20024;-68
2023/01/12 03:02:54;;;;;;;47.80;7.95;;;27.40;99.90;;;;;;5077252;28;20028;-67
2023/01/12 03:05:19;;;;;;;40.60;7.20;;;27.40;99.90;;;;;;5077076;28;20025;-67
2023/01/12 03:07:54;;;;;;;37.78;7.75;;;27.50;99.90;;;;;;5077212;28;20107;-68
2023/01/12 03:10:27;;;;;;;47.95;6.18;;;27.40;99.90;;;;;;5077182;28;20066;-68
2023/01/12 03:12:54;;;;;;;48.95;9.75;;;27.40;99.90;;;;;;5077023;28;20025;-69
2023/01/12 03:15:22;;;;;;;36.85;8.07;;;27.40;99.90;;;;;;5075671;28;20048;-68
2023/01/12 03:18:02;;;;;;;35.88;6.65;;;27.40;99.90;;;;;;5077141;28;20107;-68
2023/01/12 03:20:33;;;;;;;42.83;7.47;;;27.40;99.90;;;;;;5076948;28;20554;-68
2023/01/12 03:23:09;;;;;;;45.78;6.40;;;27.50;99.90;;;;;;5077520;28;20036;-67
2023/01/12 03:25:37;;;;;;;52.13;7.68;;;27.50;99.90;;;;;;5077441;28;20019;-72
2023/01/12 03:28:05;;;;;;;51.42;8.20;;;27.60;99.90;;;;;;5077900;28;20115;-68
2023/01/12 03:30:44;;;;;;;49.60;8.55;;;27.50;99.90;;;;;;5074359;28;20032;-68
2023/01/12 03:33:11;;;;;;;52.00;8.25;;;27.50;99.90;;;;;;5074549;28;20028;-69
2023/01/12 03:35:54;;;;;;;44.58;7.20;;;27.50;99.90;;;;;;5074970;28;20120;-68
2023/01/12 03:38:39;;;;;;;36.42;7.38;;;27.50;99.90;;;;;;5074429;28;20021;-68
2023/01/12 03:41:18;;;;;;;44.47;8.77;;;27.40;99.90;;;;;;5074564;28;20033;-68
2023/01/12 03:43:50;;;;;;;47.97;6.88;;;27.20;99.90;;;;;;5076548;28;20025;-69
2023/01/12 03:46:32;;;;;;;;;;;27.20;99.90;;;;;;5076792;28;20116;-68
2023/01/12 03:49:23;;;;;;;38.50;6.55;;;27.10;99.90;;;;;;5075765;28;20357;-68
2023/01/12 03:51:51;;;;;;;40.80;6.78;;;27.10;99.90;;;;;;5073933;28;20040;-68
2023/01/12 03:54:17;;;;;;;45.13;7.45;;;27.00;99.90;;;;;;5073471;28;20082;-68
2023/01/12 03:56:45;;;;;;;34.58;7.65;;;27.00;99.90;;;;;;5073185;28;20209;-68
2023/01/12 03:59:13;;;;;;;38.88;6.40;;;26.80;99.90;;;;;;5071939;28;20173;-69
2023/01/12 04:01:40;;;;;;;39.90;7.15;;;27.00;99.90;;;;;;5073177;28;20028;-68
2023/01/12 04:04:06;;;;;;;54.72;8.80;;;26.90;99.90;;;;;;5073091;28;20016;-68
2023/01/12 04:06:31;;;;;;;45.38;9.93;;;26.90;99.90;;;;;;5071790;28;20020;-69
2023/01/12 04:08:57;;;;;;;42.65;7.90;;;27.00;99.90;;;;;;5073033;28;20501;-68
2023/01/12 04:14:07;;;;;;;42.40;7.72;;;27.00;99.90;;;;;;5072755;28;20064;-68
2023/01/12 04:16:32;;;;;;;36.65;6.97;;;27.20;99.90;;;;;;5072922;28;20024;-69
2023/01/12 04:18:58;;;;;;;50.35;8.57;;;27.10;99.90;;;;;;5072681;28;20056;-69
2023/01/12 04:24:25;;;;;;;59.53;10.05;;;27.40;99.90;;;;;;5030083;28;20069;-69
2023/01/12 04:26:51;;;;;;;43.33;5.88;;;27.50;99.90;;;;;;5075090;28;20033;-69
2023/01/12 04:29:16;;;;;;;50.75;6.82;;;27.60;99.90;;;;;;5072643;28;20028;-68
2023/01/12 04:31:42;;;;;;;46.80;8.70;;;27.60;99.90;;;;;;5072651;28;20082;-69
2023/01/12 04:34:07;;;;;;;48.13;7.53;;;27.60;99.90;;;;;;5072258;28;20078;-68
2023/01/12 04:36:33;;;;;;;40.70;8.07;;;27.70;99.90;;;;;;5072411;28;20026;-68
2023/01/12 04:38:59;;;;;;;33.90;6.22;;;27.60;99.90;;;;;;5072575;28;20021;-68
2023/01/12 04:41:24;;;;;;;38.83;7.10;;;27.40;99.90;;;;;;5072196;28;20111;-67
2023/01/12 04:43:50;;;;;;;53.08;7.55;;;27.60;99.90;;;;;;5072403;28;20031;-67
2023/01/12 04:46:16;;;;;;;30.75;5.65;;;27.50;99.90;;;;;;5070773;28;20023;-68
2023/01/12 04:48:42;;;;;;;29.52;5.93;;;27.50;99.90;;;;;;5072348;28;20017;-69
2023/01/12 04:51:08;;;;;;;33.20;6.13;;;27.60;99.90;;;;;;5070923;28;20097;-68
2023/01/12 04:53:34;;;;;;;32.00;7.18;;;27.60;99.90;;;;;;5072062;28;20017;-68
2023/01/12 04:56:05;;;;;;;40.85;5.55;;;27.30;99.90;;;;;;5072238;28;20051;-69
2023/01/12 04:58:31;;;;;;;43.28;5.93;;;27.80;99.90;;;;;;5072293;28;20065;-70
2023/01/12 05:00:57;;;;;;;30.55;6.10;;;27.90;99.90;;;;;;5071969;28;20066;-69
2023/01/12 05:03:23;;;;;;;29.65;6.38;;;27.90;99.90;;;;;;5071923;28;20059;-68
2023/01/12 05:05:48;;;;;;;47.83;8.80;;;28.20;99.90;;;;;;5071943;28;20033;-70
2023/01/12 05:10:59;;;;;;;41.50;6.35;;;28.50;99.90;;;;;;5072059;28;20035;-69
2023/01/12 05:13:27;;;;;;;31.15;5.65;;;28.60;99.90;;;;;;5070473;28;20106;-68
2023/01/12 05:15:53;;;;;;;41.63;7.25;;;28.60;99.90;;;;;;5071661;28;20077;-69
2023/01/12 05:18:19;;;;;;;49.78;7.57;;;28.70;99.90;;;;;;5071934;28;20109;-69
2023/01/12 05:20:45;;;;;;;50.00;7.03;;;29.00;99.90;;;;;;5071728;28;20024;-68
2023/01/12 05:23:10;;;;;;;38.63;7.32;;;28.90;99.90;;;;;;5071681;28;20551;-69
2023/01/12 05:25:36;;;;;;;28.67;6.15;;;28.90;99.90;;;;;;5071622;28;20413;-68
2023/01/12 05:28:02;;;;;;;56.65;7.75;;;29.00;99.90;;;;;;5071522;28;20028;-68
2023/01/12 05:30:28;;;;;;;37.97;6.47;;;29.10;99.90;;;;;;5071668;28;20024;-66
2023/01/12 05:32:54;;;;;;;45.97;7.18;;;29.00;99.90;;;;;;5071733;28;20104;-67
2023/01/12 05:35:21;;;;;;;37.85;7.10;;;28.90;99.90;;;;;;5072288;28;20713;-67
2023/01/12 05:37:46;;;;;;;40.92;5.47;;;28.80;99.90;;;;;;5071588;28;20012;-67
2023/01/12 05:40:14;;;;;;;35.63;7.90;;;28.80;99.90;;;;;;5071427;28;20031;-67
2023/01/12 05:45:23;;;;;;;42.97;6.15;;;28.60;99.90;;;;;;5071726;28;20036;-67
2023/01/12 05:48:00;;;;;;;43.25;6.38;;;28.70;99.90;;;;;;5071309;28;20024;-67
2023/01/12 05:50:26;;;;;;;31.38;5.88;;;28.40;99.90;;;;;;5071427;28;20116;-67
2023/01/12 05:52:52;;;;;;;44.95;6.40;;;28.40;99.90;;;;;;5069620;28;20096;-67
2023/01/12 05:55:18;;;;;;;32.78;6.25;;;28.40;99.90;;;;;;5071131;28;20032;-66
2023/01/12 05:57:43;;;;;;;38.40;7.05;;;28.40;99.90;;;;;;5071206;28;20461;-66
2023/01/12 06:00:10;;;;;;;43.47;7.10;;;28.40;99.90;;;;;;5071338;28;20481;-65
2023/01/12 06:02:35;;;;;;;37.42;5.75;;;28.30;99.90;;;;;;5071131;28;20111;-66
2023/01/12 06:05:03;;;;;;;40.25;5.38;;;28.20;99.90;;;;;;5071201;28;20108;-66
2023/01/12 06:07:29;;;;;;;30.13;6.43;;;28.50;99.90;;;;;;5071262;28;20024;-67
2023/01/12 06:09:55;;;;;;;34.63;5.70;;;28.30;99.90;;;;;;5068711;28;20617;-67
2023/01/12 06:15:05;;;;;;;39.97;6.47;;;28.00;99.90;;;;;;5056256;28;20064;-69
2023/01/12 06:17:31;;;;;;;37.70;6.38;;;28.40;99.90;;;;;;5051787;28;20016;-68
2023/01/12 06:19:56;;;;;;;52.42;8.68;;;28.60;99.90;;;;;;5064594;28;20094;-68
2023/01/12 06:22:22;;;;;;;29.00;5.47;;;28.60;99.90;;;;;;5069662;28;20020;-69
2023/01/12 06:24:48;;;;;;;52.35;6.80;;;28.60;99.90;;;;;;5048853;28;20037;-67
2023/01/12 06:27:15;;;;;;;35.38;6.22;;;28.50;99.90;;;;;;5062315;28;20025;-68
2023/01/12 06:29:41;;;;;;;37.22;7.13;;;28.60;99.90;;;;;;5051399;28;20025;-68
2023/01/12 06:32:07;;;;;;;36.25;6.47;;;28.60;99.90;;;;;;5070829;28;20094;-67
2023/01/12 06:34:34;;;;;;;41.30;5.00;;;28.30;99.90;;;;;;5067511;28;20481;-67
2023/01/12 06:37:01;;;;;;;41.47;5.35;;;28.60;99.90;;;;;;5049647;28;20104;-68
2023/01/12 06:39:28;;;;;;;35.53;6.65;;;28.40;99.90;;;;;;5066949;28;20116;-68
2023/01/12 06:44:38;;;;;;;44.38;8.35;;;28.70;99.90;;;;;;5068500;28;20031;-68
2023/01/12 06:47:04;;;;;;;36.15;6.63;;;29.00;99.90;;;;;;5068395;28;20024;-67
2023/01/12 06:49:29;;;;;;;33.88;7.05;;;29.20;99.90;;;;;;5056749;28;20040;-69
2023/01/12 06:51:55;;;;;;;46.58;6.25;;;29.50;99.90;;;;;;5050427;28;20536;-67
2023/01/12 06:54:21;;;;;;;56.70;7.68;;;29.80;99.90;;;;;;5050326;28;20025;-68
2023/01/12 06:56:46;;;;;;;32.88;6.43;;;29.80;99.90;;;;;;5050595;28;20466;-68
2023/01/12 06:59:12;;;;;;;37.60;6.50;;;29.90;99.90;;;;;;5052342;28;20025;-67
2023/01/12 07:01:39;;;;;;;43.08;6.35;;;29.90;99.90;;;;;;5049349;28;20060;-68
2023/01/12 07:04:05;;;;;;;53.45;7.20;;;30.30;99.90;;;;;;5058861;28;20534;-67
2023/01/12 07:06:30;;;;;;;53.65;8.48;;;30.30;99.90;;;;;;5055643;28;20103;-68
2023/01/12 07:08:56;;;;;;;35.97;7.18;;;30.70;99.90;;;;;;5069428;28;20034;-69
2023/01/12 07:11:22;;;;;;;67.78;8.38;;;30.70;99.90;;;;;;5074737;28;20028;-68
2023/01/12 07:13:47;;;;;;;54.53;7.63;;;30.60;99.90;;;;;;5058537;28;20041;-68
2023/01/12 07:16:13;;;;;;;35.47;6.00;;;30.60;99.90;;;;;;5054991;28;20521;-69
2023/01/12 07:18:39;;;;;;;37.00;7.50;;;30.70;99.90;;;;;;5064101;28;20032;-69
2023/01/12 07:21:06;;;;;;;45.47;6.43;;;30.80;99.90;;;;;;5072930;28;20028;-69
2023/01/12 07:23:32;;;;;;;44.78;6.45;;;31.20;99.90;;;;;;5073531;28;20031;-67
2023/01/12 07:25:58;;;;;;;31.27;6.00;;;31.20;99.90;;;;;;5073746;28;20024;-68
2023/01/12 07:28:23;;;;;;;38.70;6.43;;;31.10;99.90;;;;;;5071992;28;20019;-68
2023/01/12 07:30:49;;;;;;;60.92;9.32;;;31.20;99.90;;;;;;5072614;28;20108;-67
2023/01/12 07:33:15;;;;;;;63.70;9.45;;;30.50;99.90;;;;;;5064905;28;20469;-68
2023/01/12 07:35:41;;;;;;;47.90;8.77;;;30.60;99.90;;;;;;5069564;28;20587;-68
2023/01/12 07:38:08;;;;;;;41.45;7.38;;;31.10;99.90;;;;;;5060625;28;20462;-68
2023/01/12 07:40:33;;;;;;;60.95;9.27;;;31.50;99.90;;;;;;5053205;28;20025;-69
2023/01/12 07:43:05;;;;;;;59.88;9.13;;;33.10;99.90;;;;;;5054062;28;20029;-67
2023/01/12 07:45:31;;;;;;;49.75;6.85;;;33.30;99.90;;;;;;5053982;28;20402;-69
2023/01/12 07:47:57;;;;;;;42.30;7.82;;;33.00;99.90;;;;;;5054845;28;20477;-68
2023/01/12 07:50:25;;;;;;;66.93;8.75;;;33.40;99.90;;;;;;5073346;28;20044;-69
2023/01/12 07:52:51;;;;;;;55.38;8.48;;;33.70;99.90;;;;;;5066530;28;20501;-68
2023/01/12 07:55:18;;;;;;;57.55;9.65;;;34.00;99.90;;;;;;5068477;28;20087;-69
2023/01/12 07:57:54;;;;;;;52.63;9.10;;;34.20;99.90;;;;;;5061724;28;20070;-69
2023/01/12 08:00:23;;;;;;;56.95;9.90;;;33.90;99.90;;;;;;5071859;28;20031;-68
2023/01/12 08:02:54;;;;;;;49.38;7.70;;;34.40;99.90;;;;;;5071947;28;20492;-68
2023/01/12 08:05:21;;;;;;;48.30;8.13;;;34.90;99.90;;;;;;5058063;28;20059;-69
2023/01/12 08:07:47;;;;;;;57.65;8.20;;;35.10;99.90;;;;;;5062728;28;20093;-68
2023/01/12 08:10:14;;;;;;;57.13;8.70;;;35.40;99.90;;;;;;5058913;28;20037;-69
2023/01/12 08:12:40;;;;;;;54.50;7.82;;;35.20;99.90;;;;;;5060914;28;20028;-68
2023/01/12 08:15:07;;;;;;;54.25;9.00;;;35.30;99.90;;;;;;5062358;28;20097;-68
2023/01/12 08:17:41;;;;;;;64.13;9.10;;;35.20;99.90;;;;;;5053568;28;20049;-69
2023/01/12 08:20:17;;;;;;;71.18;10.02;;;35.30;99.90;;;;;;5054186;28;20520;-69
2023/01/12 08:22:47;;;;;;;66.38;10.70;;;35.40;99.90;;;;;;5072462;28;20473;-68
2023/01/12 08:25:17;;;;;;;48.58;8.98;;;35.40;99.90;;;;;;5059369;28;20028;-68
2023/01/12 08:27:47;;;;;;;53.80;8.68;;;35.60;99.90;;;;;;5055590;28;20029;-69
2023/01/12 08:30:16;;;;;;;56.65;8.55;;;35.90;99.90;;;;;;5052489;28;20026;-67
2023/01/12 08:32:42;;;;;;;42.55;6.72;;;35.80;99.90;;;;;;5052257;28;20118;-67
2023/01/12 08:35:10;;;;;;;65.95;9.48;;;35.50;99.90;;;;;;5051930;28;20486;-69
2023/01/12 08:37:36;;;;;;;64.57;9.88;;;35.60;99.90;;;;;;5052343;28;20017;-69
2023/01/12 08:40:03;;;;;;;61.00;8.88;;;35.60;99.90;;;;;;5052652;28;20096;-68
2023/01/12 08:42:29;;;;;;;65.72;8.80;;;35.40;99.90;;;;;;5052639;28;20465;-67
2023/01/12 08:44:55;;;;;;;69.18;8.35;;;35.40;99.90;;;;;;5052453;28;20105;-67
2023/01/12 08:47:29;;;;;;;56.80;10.02;;;35.80;99.90;;;;;;5052328;28;20025;-66
2023/01/12 08:49:56;;;;;;;38.00;8.88;;;35.40;99.90;;;;;;5052349;28;20393;-67
2023/01/12 08:52:22;;;;;;;36.63;6.82;;;35.40;99.90;;;;;;5052399;28;20017;-67
2023/01/12 08:54:48;;;;;;;57.25;9.25;;;35.50;99.90;;;;;;5052212;28;20036;-67
2023/01/12 08:57:18;;;;;;;51.53;7.93;;;35.10;99.90;;;;;;5052171;28;20021;-68
2023/01/12 08:59:44;;;;;;;65.50;9.77;;;35.20;99.90;;;;;;5051890;28;20478;-68
2023/01/12 09:02:11;;;;;;;52.15;8.98;;;35.40;99.90;;;;;;5050800;28;20036;-68
2023/01/12 09:04:39;;;;;;;4.70;1.67;;;35.40;99.90;;;;;;5051409;28;20044;-67
2023/01/12 09:07:08;;;;;;;0.20;0.20;;;35.10;99.90;;;;;;5052185;28;20551;-69
2023/01/12 09:09:34;;;;;;;0.20;0.20;;;35.60;99.90;;;;;;5052122;28;20100;-68
2023/01/12 09:12:00;;;;;;;0.20;0.20;;;35.50;99.90;;;;;;5051617;28;20548;-68
2023/01/12 09:14:26;;;;;;;2.63;1.27;;;36.00;99.90;;;;;;5050406;28;20087;-69
2023/01/12 09:16:52;;;;;;;14.98;2.95;;;36.40;99.90;;;;;;5051909;28;20067;-70
2023/01/12 09:19:18;;;;;;;5.78;0.55;;;37.10;99.90;;;;;;5051909;28;20036;-68
2023/01/12 09:21:44;;;;;;;7.78;1.85;;;37.20;99.90;;;;;;5051738;28;20369;-67
2023/01/12 09:24:13;;;;;;;0.20;0.20;;;37.60;99.90;;;;;;5051736;28;20119;-67
2023/01/12 09:26:44;;;;;;;0.82;0.82;;;37.90;99.90;;;;;;5051767;28;20021;-68
2023/01/12 09:29:11;;;;;;;0.30;0.30;;;38.00;99.90;;;;;;5051079;28;20087;-68
2023/01/12 09:31:39;;;;;;;9.88;4.03;;;38.00;99.90;;;;;;5051511;28;20022;-68
2023/01/12 09:34:05;;;;;;;0.40;0.40;;;38.60;99.90;;;;;;5051704;28;20064;-69
2023/01/12 09:36:34;;;;;;;1.17;0.63;;;38.30;99.90;;;;;;5051586;28;20433;-71
2023/01/12 09:39:03;;;;;;;2.50;2.38;;;36.90;99.90;;;;;;5050288;28;20132;-70
2023/01/12 09:47:49;;;;;;;0.63;0.63;;;37.10;99.90;;;;;;5050725;28;20051;-70
2023/01/12 09:50:32;;;;;;;3.58;3.10;;;36.20;99.90;;;;;;5052007;28;20060;-72
2023/01/12 09:53:04;;;;;;;5.00;1.50;;;35.50;99.90;;;;;;5051922;28;20104;-71
2023/01/12 09:55:53;;;;;;;2.28;1.42;;;36.70;99.90;;;;;;5051345;28;20032;-71
2023/01/12 09:58:26;;;;;;;1.13;1.13;;;36.90;99.90;;;;;;5051301;28;20025;-72
2023/01/12 10:00:55;;;;;;;0.25;0.25;;;36.50;99.90;;;;;;5049960;28;20095;-72
2023/01/12 10:03:52;;;;;;;11.15;4.22;;;37.40;99.90;;;;;;5051001;28;20032;-85
2023/01/12 10:06:19;;;;;;;0.20;0.20;;;36.30;99.90;;;;;;5049511;28;20070;-81
2023/01/12 10:08:54;;;;;;;1.30;1.30;;;36.20;99.90;;;;;;5051757;28;20474;-83
2023/01/12 10:12:01;;;;;;;0.20;0.20;;;35.60;99.90;;;;;;5049794;28;20020;-75
2023/01/12 10:14:33;;;;;;;0.22;0.22;;;35.90;99.90;;;;;;4988826;28;20141;-74
2023/01/12 10:17:06;;;;;;;0.20;0.20;;;36.60;99.90;;;;;;5036348;28;20494;-76
2023/01/12 10:19:47;;;;;;;2.05;1.75;;;36.20;99.90;;;;;;5051272;28;20053;-75
2023/01/12 10:22:35;;;;;;;0.20;0.20;;;36.20;99.90;;;;;;5049682;28;20040;-77
2023/01/12 10:25:19;;;;;;;1.67;1.60;;;35.50;99.90;;;;;;5049660;28;20046;-72
2023/01/12 10:27:48;;;;;;;0.20;0.20;;;35.60;99.90;;;;;;5050826;28;20025;-74
2023/01/12 10:30:27;;;;;;;1.17;1.17;;;35.90;99.90;;;;;;5049591;28;20078;-76
2023/01/12 10:32:53;;;;;;;1.42;1.33;;;34.80;99.90;;;;;;5049582;28;20025;-74
2023/01/12 10:35:21;;;;;;;0.93;0.93;;;34.40;99.90;;;;;;5049427;28;20040;-75
2023/01/12 10:37:52;;;;;;;0.93;0.85;;;34.60;99.90;;;;;;5050857;28;20047;-75
2023/01/12 10:40:36;;;;;;;0.85;0.63;;;34.60;99.90;;;;;;5053837;28;20033;-76
2023/01/12 10:43:22;;;;;;;0.63;0.63;;;34.90;99.90;;;;;;5053737;28;20067;-76
2023/01/12 10:46:04;;;;;;;1.38;1.30;;;34.70;99.90;;;;;;5055061;28;20090;-76
2023/01/12 10:48:30;;;;;;;;;;;34.40;99.90;;;;;;5055049;28;20021;-75
2023/01/12 10:50:58;;;;;;;3.03;0.88;;;34.30;99.90;;;;;;5054806;28;19975;-74
2023/01/12 10:53:46;;;;;;;0.20;0.20;;;34.40;99.90;;;;;;5054683;28;20036;-74
2023/01/12 10:56:20;;;;;;;0.20;0.20;;;34.30;99.90;;;;;;5054715;28;20124;-74
2023/01/12 10:59:12;;;;;;;4.72;1.60;;;34.60;99.90;;;;;;5054663;28;20023;-75
2023/01/12 11:01:48;;;;;;;0.20;0.20;;;34.50;99.90;;;;;;5051561;28;20057;-75
2023/01/12 11:04:22;;;;;;;0.20;0.20;;;34.50;99.90;;;;;;5053225;28;20029;-75
2023/01/12 11:07:01;;;;;;;0.73;0.73;;;34.30;99.90;;;;;;5054520;28;20628;-76
2023/01/12 11:09:30;;;;;;;0.40;0.40;;;33.80;99.90;;;;;;5054455;28;20064;-76
2023/01/12 11:11:59;;;;;;;0.20;0.20;;;34.00;99.90;;;;;;5054626;28;20025;-76
2023/01/12 11:14:36;;;;;;;0.30;0.30;;;33.70;99.90;;;;;;5052756;28;20498;-77
2023/01/12 11:17:16;;;;;;;0.85;0.85;;;33.80;99.90;;;;;;5054570;28;20029;-76
2023/01/12 11:19:44;;;;;;;0.30;0.30;;;33.50;99.90;;;;;;5054113;28;20023;-77
2023/01/12 11:22:21;;;;;;;0.30;0.30;;;32.80;99.90;;;;;;5053881;28;20029;-77
2023/01/12 11:24:54;;;;;;;0.20;0.20;;;31.60;99.90;;;;;;5054284;28;20143;-79
2023/01/12 11:27:44;;;;;;;0.30;0.30;;;31.80;99.90;;;;;;5054247;28;20025;-80
2023/01/12 11:30:17;;;;;;;0.93;0.93;;;32.00;99.90;;;;;;5052634;28;20074;-81
2023/01/12 11:33:12;;;;;;;2.00;0.45;;;32.00;99.90;;;;;;5053974;28;20017;-83
2023/01/12 11:35:37;;;;;;;2.58;0.43;;;32.10;99.90;;;;;;5052860;28;20036;-80
2023/01/12 11:38:21;;;;;;;5.25;2.67;;;31.70;99.90;;;;;;5053865;28;20421;-78
2023/01/12 11:40:48;;;;;;;0.20;0.20;;;32.00;99.90;;;;;;5053881;28;20036;-77
2023/01/12 11:46:43;;;;;;;8.48;3.75;;;31.70;99.90;;;;;;5053670;28;20031;-78
2023/01/12 11:49:26;;;;;;;0.20;0.20;;;31.40;99.90;;;;;;5053829;28;20032;-76
2023/01/12 11:51:56;;;;;;;0.20;0.20;;;31.70;99.90;;;;;;5052465;28;20025;-75
2023/01/12 11:54:25;;;;;;;0.20;0.20;;;31.70;99.90;;;;;;5053620;28;20040;-74
2023/01/12 11:57:10;;;;;;;0.20;0.20;;;31.20;99.90;;;;;;5052303;28;20109;-73
2023/01/12 12:00:16;;;;;;;0.70;0.70;;;31.10;99.90;;;;;;5053390;28;20055;-72
2023/01/12 12:03:04;;;;;;;0.20;0.20;;;31.10;99.90;;;;;;5053396;28;20363;-71
2023/01/12 12:05:46;;;;;;;0.43;0.43;;;30.90;99.90;;;;;;5053210;28;20111;-71
2023/01/12 12:08:46;;;;;;;0.20;0.20;;;31.00;99.90;;;;;;5053336;28;20029;-71
2023/01/12 12:11:30;;;;;;;0.20;0.20;;;31.00;99.90;;;;;;5053334;28;20037;-70
2023/01/12 12:14:17;;;;;;;0.20;0.20;;;31.00;99.90;;;;;;5052841;28;20146;-70
2023/01/12 12:17:08;;;;;;;1.10;1.10;;;31.10;99.90;;;;;;5052952;28;20108;-71
2023/01/12 12:19:52;;;;;;;0.20;0.20;;;31.10;99.90;;;;;;5053007;28;20025;-71
2023/01/12 12:22:23;;;;;;;0.20;0.20;;;30.70;99.90;;;;;;5052808;28;20025;-70
2023/01/12 12:25:14;;;;;;;0.40;0.40;;;30.60;99.90;;;;;;5053055;28;20041;-71
2023/01/12 12:27:57;;;;;;;0.20;0.20;;;30.70;99.90;;;;;;5052903;28;20062;-71
2023/01/12 12:30:58;;;;;;;3.50;1.88;;;30.90;99.90;;;;;;5052799;28;20021;-70
2023/01/12 12:33:45;;;;;;;0.20;0.20;;;30.60;99.90;;;;;;5052667;28;20020;-71
2023/01/12 12:36:46;;;;;;;19.00;1.10;;;29.90;99.90;;;;;;5052595;28;20477;-71
2023/01/12 12:39:17;;;;;;;1.00;1.00;;;29.40;99.90;;;;;;5053006;28;20321;-73
2023/01/12 12:48:04;;;;;;;14.55;1.90;;;28.90;99.90;;;;;;5052486;28;20067;-69
2023/01/12 12:50:52;;;;;;;0.30;0.30;;;29.30;99.90;;;;;;5052466;28;20075;-70
2023/01/12 12:53:24;;;;;;;0.77;0.77;;;29.20;99.90;;;;;;5052307;28;20504;-70
2023/01/12 12:55:52;;;;;;;0.20;0.20;;;29.00;99.90;;;;;;5051025;28;20037;-69
2023/01/12 12:58:20;;;;;;;0.20;0.20;;;29.10;99.90;;;;;;5052670;28;20032;-69
2023/01/12 13:00:47;;;;;;;0.95;0.93;;;29.10;99.90;;;;;;5052214;28;20025;-69
2023/01/12 13:03:38;;;;;;;1.92;0.85;;;28.70;99.90;;;;;;5052212;28;20108;-70
2023/01/12 13:06:28;;;;;;;0.20;0.20;;;28.70;99.90;;;;;;5052171;28;20029;-69
2023/01/12 13:09:15;;;;;;;0.40;0.40;;;29.10;99.90;;;;;;5052065;28;20031;-69
2023/01/12 13:11:54;;;;;;;0.38;0.38;;;29.10;99.90;;;;;;5041114;28;20116;-71
2023/01/12 13:14:25;;;;;;;0.47;0.47;;;29.00;99.90;;;;;;5051630;28;20137;-73
2023/01/12 13:17:14;;;;;;;0.20;0.20;;;29.20;99.90;;;;;;5050521;28;20025;-71
2023/01/12 13:19:43;;;;;;;2.60;2.40;;;28.40;99.90;;;;;;5022326;28;20374;-69
2023/01/12 13:22:38;;;;;;;0.20;0.20;;;27.90;99.90;;;;;;5051779;28;20032;-69
2023/01/12 13:25:16;;;;;;;6.30;2.47;;;27.80;99.90;;;;;;5038339;28;20036;-69
2023/01/12 13:27:59;;;;;;;0.17;0.17;;;28.00;99.90;;;;;;5051824;28;20025;-68
2023/01/12 13:30:25;;;;;;;0.65;0.65;;;28.00;99.90;;;;;;5051789;28;20057;-68
2023/01/12 13:32:54;;;;;;;0.60;0.60;;;28.10;99.90;;;;;;5051602;28;20055;-69
2023/01/12 13:35:27;;;;;;;0.20;0.20;;;27.90;99.90;;;;;;5051540;28;20589;-69
2023/01/12 13:38:06;;;;;;;3.95;1.95;;;27.80;99.90;;;;;;5051650;28;20043;-68
2023/01/12 13:40:32;;;;;;;0.20;0.20;;;27.80;99.90;;;;;;5051556;28;20052;-70
2023/01/12 13:43:13;;;;;;;6.00;0.70;;;28.10;99.90;;;;;;5051675;28;20044;-69
2023/01/12 13:45:47;;;;;;;0.20;0.20;;;27.90;99.90;;;;;;5051377;28;20104;-69
2023/01/12 13:48:15;;;;;;;0.20;0.20;;;27.70;99.90;;;;;;5051707;28;20033;-70
2023/01/12 13:51:12;;;;;;;4.05;3.70;;;28.00;99.90;;;;;;5051255;28;20029;-76
2023/01/12 13:53:37;;;;;;;32.25;1.67;;;28.10;99.90;;;;;;5035143;28;20048;-76